Flight Track Log - Related Links

Times and Time Zones

All times are in EDT time to prevent confusion due to time zone crossing. See the AAY655 flight status page for this flight to view local times or setup timezone preferences in your user account.

Time Position Orientation Groundspeed Altitude Reporting Facility
EDT Latitude Longitude Course Direction KTS MPH feet Rate Location/Type
Mon 08:03:04 PM 43.1167 -78.9667 216° Southwest 151 174 1,200  Level Buffalo TRACON
Mon 08:03:22 PM 43.1000 -78.9833 216° Southwest 154 177 2,100 2,447 Climbing Buffalo TRACON
Mon 08:04:20 PM 43.0522 -78.9831 180° South 214 246 4,300 3,150 Climbing Cleveland Center
Mon 08:05:22 PM 42.9758 -78.9822 180° South 257 296 8,400 3,484 Climbing Cleveland Center
Mon 08:06:24 PM 42.8947 -78.9981 188° South 281 323 11,500 2,661 Climbing Cleveland Center
Mon 08:07:26 PM 42.7997 -79.0158 188° South 342 394 13,900 2,516 Climbing Cleveland Center
Mon 08:08:28 PM 42.6942 -79.0328 187° South 378 435 16,700 2,468 Climbing Cleveland Center
Mon 08:09:30 PM 42.5825 -79.0531 188° South 403 464 19,000 2,419 Climbing Cleveland Center
Mon 08:10:32 PM 42.4519 -79.0747 187° South 418 481 21,700 2,274 Climbing Cleveland Center
Mon 08:11:34 PM 42.3469 -79.1019 191° South 431 496 23,700 2,081 Climbing Cleveland Center
Mon 08:12:36 PM 42.2117 -79.1653 199° South 430 495 26,000 2,129 Climbing Cleveland Center
Mon 08:13:38 PM 42.1008 -79.2172 199° South 426 490 28,100 1,839 Climbing Cleveland Center
Mon 08:14:40 PM 41.9889 -79.2547 194° South 425 489 29,800 1,306 Climbing Cleveland Center
Mon 08:15:42 PM 41.8692 -79.2669 184° South 438 504 30,800 1,016 Climbing Cleveland Center
Mon 08:16:44 PM 41.7492 -79.2825 186° South 435 501 31,900 1,065 Climbing Cleveland Center
Mon 08:17:46 PM 41.6031 -79.2983 185° South 437 503 33,000 532 Climbing Cleveland Center
Mon 08:18:48 PM 41.4867 -79.3186 187° South 429 494 33,000  Level Cleveland Center
Mon 08:19:50 PM 41.3894 -79.3631 199° South 419 482 33,000  Level Cleveland Center
Mon 08:20:52 PM 41.2642 -79.4300 202° Southwest 408 470 33,000 48 Level Cleveland Center
Mon 08:21:54 PM 41.1586 -79.4828 201° Southwest 408 470 33,100 484 Climbing Cleveland Center
Mon 08:22:56 PM 41.0533 -79.5369 201° Southwest 407 468 34,000 435 Climbing Cleveland Center
Mon 08:23:58 PM 40.9500 -79.5903 201° Southwest 404 465 34,000  Level Cleveland Center
Mon 08:25:00 PM 40.8456 -79.6419 201° Southwest 403 464 34,000  Level Cleveland Center
Mon 08:26:02 PM 40.7400 -79.6964 201° Southwest 404 465 34,000  Level Cleveland Center
Mon 08:27:04 PM 40.6131 -79.7594 201° Southwest 406 467 34,000  Level Cleveland Center
Mon 08:28:06 PM 40.5072 -79.8139 201° Southwest 406 467 34,000  Level Cleveland Center
Mon 08:29:08 PM 40.4003 -79.8672 201° Southwest 407 468 34,000  Level Cleveland Center
Mon 08:30:10 PM 40.2933 -79.9197 201° Southwest 407 468 34,000  Level Cleveland Center
Mon 08:31:12 PM 40.1786 -79.9428 189° South 409 471 34,000  Level Cleveland Center
Mon 08:32:14 PM 40.0625 -79.9561 185° South 411 473 34,000  Level Cleveland Center
Mon 08:33:16 PM 39.9456 -79.9706 185° South 416 479 34,000  Level Cleveland Center
Mon 08:34:18 PM 39.8294 -79.9839 185° South 416 479 34,000  Level Cleveland Center
Mon 08:35:20 PM 39.6897 -80.0014 186° South 417 480 34,000  Level Cleveland Center
Mon 08:36:20 PM 39.5781 -80.0208 188° South 416 479 34,000  Level Washington Center
Mon 08:37:20 PM 39.4672 -80.0328 185° South 416 479 34,000  Level Washington Center
Mon 08:38:21 PM 39.3539 -80.0528 188° South 416 479 34,000  Level Washington Center
Mon 08:39:19 PM 39.2428 -80.0728 188° South 411 473 34,000  Level Washington Center
Mon 08:40:20 PM 39.1278 -80.0789 182° South 411 473 34,000  Level Washington Center
Mon 08:41:21 PM 39.0169 -80.0347 163° South 417 480 34,000  Level Washington Center
Mon 08:42:19 PM 38.8958 -79.9819 161° South 445 512 34,000  Level Washington Center
Mon 08:43:20 PM 38.7728 -79.9214 159° South 456 525 34,000  Level Washington Center
Mon 08:44:19 PM 38.6492 -79.8797 165° South 462 532 34,000  Level Washington Center
Mon 08:45:20 PM 38.5253 -79.9069 190° South 422 486 34,000  Level Washington Center
Mon 08:46:20 PM 38.4158 -79.9325 190° South 416 479 34,000  Level Washington Center
Mon 08:47:20 PM 38.3083 -79.9631 193° South 409 471 34,000  Level Washington Center
Mon 08:48:21 PM 38.2011 -79.9886 191° South 402 463 34,000  Level Washington Center
Mon 08:49:22 PM 38.1042 -80.0144 192° South 396 456 34,000  Level Washington Center
Mon 08:50:19 PM 37.9947 -80.0422 191° South 396 456 34,000  Level Washington Center
Mon 08:51:20 PM 37.8872 -80.0728 193° South 396 456 34,000  Level Washington Center
Mon 08:52:20 PM 37.7694 -80.1000 190° South 396 456 34,000  Level Washington Center
Mon 08:53:21 PM 37.6619 -80.1278 192° South 396 456 34,000  Level Washington Center
Mon 08:54:21 PM 37.5544 -80.1553 191° South 396 456 34,000  Level Washington Center
Mon 08:55:19 PM 37.4472 -80.1828 192° South 396 456 34,000  Level Washington Center
Mon 08:56:20 PM 37.3522 -80.2058 191° South 396 456 34,000  Level Washington Center
Mon 08:57:21 PM 37.2469 -80.2333 192° South 396 456 34,000  Level Washington Center
Mon 08:58:19 PM 37.1439 -80.2586 191° South 390 449 34,000  Level Washington Center
Mon 08:59:19 PM 37.0319 -80.2881 192° South 385 443 34,000  Level Washington Center
Mon 09:00:20 PM 36.9331 -80.3133 192° South 380 437 34,000  Level Washington Center
Mon 09:00:53 PM 36.8736 -80.3231 187° South 383 441 34,000  Level Atlanta Center
Mon 09:01:53 PM 36.7703 -80.3511 192° South 395 455 34,000  Level Atlanta Center
Mon 09:02:53 PM 36.6647 -80.3742 190° South 389 448 34,000  Level Atlanta Center
Mon 09:03:53 PM 36.5694 -80.3992 192° South 389 448 34,000  Level Atlanta Center
Mon 09:04:53 PM 36.4681 -80.4244 191° South 389 448 34,000  Level Atlanta Center
Mon 09:05:53 PM 36.3625 -80.4525 192° South 389 448 34,000  Level Atlanta Center
Mon 09:06:53 PM 36.2569 -80.4778 191° South 389 448 34,000  Level Atlanta Center
Mon 09:07:53 PM 36.1431 -80.5033 190° South 389 448 34,000  Level Atlanta Center
Mon 09:08:53 PM 36.0414 -80.5308 192° South 384 442 34,000  Level Atlanta Center
Mon 09:09:53 PM 35.9400 -80.5558 191° South 384 442 34,000  Level Atlanta Center
Mon 09:10:53 PM 35.8364 -80.5833 192° South 379 436 34,000  Level Atlanta Center
Mon 09:11:53 PM 35.7328 -80.6056 190° South 379 436 34,000  Level Atlanta Center
Mon 09:12:53 PM 35.6250 -80.6331 192° South 384 442 34,000  Level Atlanta Center
Mon 09:13:53 PM 35.5236 -80.6578 191° South 389 448 34,000  Level Atlanta Center
Mon 09:14:53 PM 35.4178 -80.6825 191° South 389 448 34,000  Level Atlanta Center
Mon 09:15:53 PM 35.3122 -80.7097 192° South 389 448 34,000  Level Atlanta Center
Mon 09:16:53 PM 35.2064 -80.7344 191° South 389 448 34,000  Level Atlanta Center
Mon 09:18:50 PM 35.0119 -80.7839 192° South 382 440 34,000  Level Jacksonville Center
Mon 09:19:50 PM 34.9061 -80.8067 190° South 382 440 34,000  Level Jacksonville Center
Mon 09:20:50 PM 34.8003 -80.8372 193° South 392 451 34,000  Level Jacksonville Center
Mon 09:21:50 PM 34.6964 -80.8622 191° South 392 451 34,000  Level Jacksonville Center
Mon 09:22:50 PM 34.5903 -80.8875 191° South 386 444 34,000  Level Jacksonville Center
Mon 09:23:50 PM 34.4906 -80.9050 188° South 392 451 34,000  Level Jacksonville Center
Mon 09:24:50 PM 34.3844 -80.9300 191° South 392 451 34,000  Level Jacksonville Center
Mon 09:25:50 PM 34.2744 -80.9578 192° South 387 445 34,000  Level Jacksonville Center
Mon 09:26:50 PM 34.1725 -80.9825 191° South 380 437 34,000  Level Jacksonville Center
Mon 09:27:50 PM 34.0706 -81.0072 191° South 375 432 34,000  Level Jacksonville Center
Mon 09:28:50 PM 33.9917 -81.0239 190° South 369 425 34,000  Level Jacksonville Center
Mon 09:29:50 PM 33.8731 -81.0517 191° South 369 425 34,000  Level Jacksonville Center
Mon 09:30:50 PM 33.7647 -81.0614 184° South 381 438 34,000  Level Jacksonville Center
Mon 09:31:50 PM 33.6583 -81.0736 185° South 381 438 34,000  Level Jacksonville Center
Mon 09:32:50 PM 33.5522 -81.0833 184° South 391 450 34,000 -50 Level Jacksonville Center
Mon 09:33:50 PM 33.4458 -81.0903 183° South 391 450 33,900  Descending Jacksonville Center
Mon 09:34:50 PM 33.3375 -81.1000 184° South 386 444 34,000 50 Climbing Jacksonville Center
Mon 09:35:50 PM 33.2311 -81.1119 185° South 386 444 34,000  Level Jacksonville Center
Mon 09:36:50 PM 33.1228 -81.1192 183° South 386 444 34,000  Level Jacksonville Center
Mon 09:37:50 PM 33.0164 -81.1286 184° South 386 444 34,000  Level Jacksonville Center
Mon 09:38:50 PM 32.9081 -81.1383 184° South 386 444 34,000  Level Jacksonville Center
Mon 09:39:50 PM 32.8017 -81.1478 184° South 386 444 34,000  Level Jacksonville Center
Mon 09:40:50 PM 32.6953 -81.1547 183° South 386 444 34,000  Level Jacksonville Center
Mon 09:41:50 PM 32.5931 -81.1642 184° South 380 437 34,000  Level Jacksonville Center
Mon 09:42:50 PM 32.4992 -81.1658 181° South 380 437 34,000  Level Jacksonville Center
Mon 09:43:50 PM 32.3781 -81.1658 180° South 385 443 34,000  Level Jacksonville Center
Mon 09:44:50 PM 32.2717 -81.1603 177° South 385 443 34,000  Level Jacksonville Center
Mon 09:45:50 PM 32.1631 -81.1600 180° South 385 443 34,000  Level Jacksonville Center
Mon 09:46:50 PM 32.0567 -81.1594 180° South 385 443 34,000 -50 Level Jacksonville Center
Mon 09:47:50 PM 31.9500 -81.1567 179° South 385 443 33,900  Descending Jacksonville Center
Mon 09:48:50 PM 31.8561 -81.1558 180° South 385 443 34,000 50 Climbing Jacksonville Center
Mon 09:49:50 PM 31.7392 -81.1533 179° South 385 443 34,000  Level Jacksonville Center
Mon 09:50:50 PM 31.6411 -81.1528 180° South 385 443 34,000  Level Jacksonville Center
Mon 09:51:50 PM 31.5219 -81.1500 179° South 385 443 34,000  Level Jacksonville Center
Mon 09:52:50 PM 31.4156 -81.1472 179° South 390 449 34,000  Level Jacksonville Center
Mon 09:53:50 PM 31.3194 -81.1489 181° South 390 449 34,000 -50 Level Jacksonville Center
Mon 09:54:50 PM 31.2086 -81.1436 178° South 390 449 33,900  Descending Jacksonville Center
Mon 09:55:50 PM 31.1022 -81.1456 181° South 390 449 34,000  Climbing Jacksonville Center
Mon 09:56:50 PM 30.9978 -81.1428 179° South 385 443 33,900  Descending Jacksonville Center
Mon 09:57:50 PM 30.8892 -81.1400 179° South 385 443 34,000 50 Climbing Jacksonville Center
Mon 09:58:50 PM 30.7786 -81.1372 179° South 385 443 34,000 -650 Level Jacksonville Center
Mon 09:59:50 PM 30.6719 -81.1342 179° South 385 443 32,700 -1,300 Descending Jacksonville Center
Mon 10:00:50 PM 30.5614 -81.1339 180° South 385 443 31,400 -1,300 Descending Jacksonville Center
Mon 10:01:50 PM 30.4506 -81.1311 179° South 390 449 30,100 -1,300 Descending Jacksonville Center
Mon 10:02:50 PM 30.3358 -81.1283 179° South 406 467 28,800 -1,300 Descending Jacksonville Center
Mon 10:03:50 PM 30.2208 -81.1281 180° South 406 467 27,500 -1,500 Descending Jacksonville Center
Mon 10:04:50 PM 30.1039 -81.1256 179° South 412 474 25,800 -2,050 Descending Jacksonville Center
Mon 10:05:50 PM 29.9828 -81.1253 180° South 424 488 23,400 -2,571 Descending Jacksonville Center
Mon 10:06:00 PM 29.9558 -81.1258 181° South 433 498 22,800 -3,000 Descending Jacksonville Center
Mon 10:06:50 PM 29.8639 -81.1275 181° South 424 488 20,400 -3,055 Descending Jacksonville Center
Mon 10:06:55 PM 29.8450 -81.1231 168° South 429 494 20,000 -3,100 Descending Jacksonville Center
Mon 10:07:50 PM 29.7469 -81.1247 181° South 429 494 17,300 -3,100 Descending Jacksonville Center
Mon 10:07:55 PM 29.7281 -81.1250 181° South 426 490 16,900 -2,909 Descending Jacksonville Center
Mon 10:08:56 PM 29.6092 -81.1225 179° South 424 488 14,100 -2,380 Descending Jacksonville Center
Mon 10:09:56 PM 29.4900 -81.1200 179° South 396 456 12,100 -1,632 Descending Jacksonville Center
Mon 10:10:50 PM 29.4003 -81.1167 178° South 378 435 11,000 -1,164 Descending Jacksonville Center
Mon 10:11:03 PM 29.3814 -81.1169 181° South 355 409 10,800 -900 Descending Jacksonville Center
Mon 10:11:50 PM 29.3108 -81.1278 188° South 334 384 10,100 -1,121 Descending Jacksonville Center
Mon 10:12:50 PM 29.2294 -81.1436 190° South 304 350 8,800 -1,400 Descending Jacksonville Center
Mon 10:13:50 PM 29.1525 -81.1497 184° South 293 337 7,300 -1,550 Descending Jacksonville Center
Mon 10:14:50 PM 29.0775 -81.1631 189° South 283 326 5,700 -1,150 Descending Jacksonville Center
Mon 10:15:50 PM 29.0044 -81.1783 190° South 278 320 5,000 -286 Descending Jacksonville Center
Mon 10:17:59 PM 28.9000 -81.2833 221° Southwest 266 306 4,800 -525 Descending Orlando TRACON
Mon 10:18:53 PM 28.8667 -81.3500 240° Southwest 257 296 3,400 -1,421 Descending Orlando TRACON
Mon 10:19:53 PM 28.8500 -81.4167 254° West 240 276 2,100 -737 Descending Orlando TRACON
Mon 10:20:47 PM 28.8000 -81.4333 196° South 184 212 2,000 -56 Descending Orlando TRACON
Mon 10:21:41 PM 28.7833 -81.4000 120° Southeast 158 182 2,000 -105 Level Orlando TRACON
Mon 10:22:41 PM 28.7833 -81.3500 90° East 158 182 1,800 -500 Descending Orlando TRACON
Mon 10:23:41 PM 28.7833 -81.3167 90° East 127 146 1,000 -800 Descending Orlando TRACON
Mon 10:25:00 PM 28.7667 -81.2333 96° East  Level FlightAware Approximate
Mon 10:32:00 PM 28.7770 -81.2349 96° East  Level Estimated
Mon 10:33:00 PM 28.7770 -81.2349 273° West  Level Estimated
Mon 10:34:00 PM 28.7770 -81.2349 96° East  Level Estimated
Mon 10:35:00 PM 28.7770 -81.2349 172° South  Level Estimated

Login

Don't have an account? Register now (free) for customized features, flight alerts, and more!